Time;durP1;ratioP1;P1;durP2;ratioP2;P2;SDS_P1;SDS_P2;PMS_P1;PMS_P2;Temp;Humidity;BMP_temperature;BMP_pressure;BME280_temperature;BME280_humidity;BME280_pressure;Samples;Min_cycle;Max_cycle;Signal;HPM_P1;HPM_P2
2022/04/10 00:01:56;;;;;;;1.17;0.88;;;21.00;43.60;;;;;;4989961;28;20204;-64
2022/04/10 00:04:23;;;;;;;1.73;0.90;;;21.00;43.60;;;;;;4989549;28;20056;-62
2022/04/10 00:06:48;;;;;;;1.23;0.80;;;21.00;43.60;;;;;;4991776;28;20394;-62
2022/04/10 00:09:14;;;;;;;0.93;0.82;;;21.00;43.60;;;;;;4994518;28;20022;-63
2022/04/10 00:11:40;;;;;;;1.10;0.80;;;21.00;43.50;;;;;;4995065;28;20443;-63
2022/04/10 00:14:06;;;;;;;1.60;0.90;;;21.00;43.50;;;;;;4994766;28;20481;-64
2022/04/10 00:16:32;;;;;;;1.13;0.80;;;20.90;43.50;;;;;;4992672;28;20034;-64
2022/04/10 00:19:04;;;;;;;1.50;0.80;;;20.90;43.50;;;;;;4992388;28;20041;-63
2022/04/10 00:21:32;;;;;;;1.13;0.80;;;21.00;43.60;;;;;;4993759;28;20164;-66
2022/04/10 00:23:58;;;;;;;1.10;0.80;;;20.90;43.50;;;;;;4994795;28;20042;-62
2022/04/10 00:26:24;;;;;;;1.08;0.80;;;21.00;43.50;;;;;;4992774;28;20284;-64
2022/04/10 00:28:53;;;;;;;0.98;0.70;;;20.90;43.40;;;;;;4992950;28;20034;-65
2022/04/10 00:31:19;;;;;;;1.45;0.80;;;20.90;43.50;;;;;;4992348;28;20030;-62
2022/04/10 00:33:44;;;;;;;1.00;0.70;;;21.00;43.50;;;;;;4991901;28;20506;-66
2022/04/10 00:36:10;;;;;;;1.70;0.75;;;21.00;43.50;;;;;;5008362;28;20029;-62
2022/04/10 00:38:36;;;;;;;1.40;0.80;;;21.00;43.50;;;;;;4994295;28;20088;-63
2022/04/10 00:41:01;;;;;;;1.52;0.93;;;21.00;43.50;;;;;;4991016;28;20037;-65
2022/04/10 00:43:32;;;;;;;1.30;0.80;;;20.90;43.40;;;;;;4991371;28;20065;-64
2022/04/10 00:45:59;;;;;;;1.13;0.77;;;21.00;43.50;;;;;;4990849;28;20030;-62
2022/04/10 00:48:24;;;;;;;1.27;0.70;;;21.00;43.60;;;;;;4989283;28;20513;-64
2022/04/10 00:53:36;;;;;;;1.13;0.80;;;21.00;43.50;;;;;;4991636;28;20405;-63
2022/04/10 00:56:02;;;;;;;1.50;0.90;;;20.90;43.50;;;;;;4993627;28;20491;-62
2022/04/10 00:58:28;;;;;;;1.35;0.77;;;20.90;43.50;;;;;;4995487;28;20033;-63
2022/04/10 01:00:54;;;;;;;0.85;0.70;;;20.90;43.40;;;;;;4992197;28;20129;-62
2022/04/10 01:03:19;;;;;;;0.93;0.75;;;20.90;43.50;;;;;;4991045;28;20029;-66
2022/04/10 01:05:47;;;;;;;0.93;0.70;;;20.90;43.50;;;;;;4996047;28;20493;-64
2022/04/10 01:08:13;;;;;;;1.33;0.80;;;20.90;43.40;;;;;;4995613;28;20037;-63
2022/04/10 01:10:38;;;;;;;1.08;0.70;;;20.90;43.40;;;;;;4997272;28;20057;-66
2022/04/10 01:13:05;;;;;;;1.02;0.70;;;20.90;43.50;;;;;;4994923;28;20054;-65
2022/04/10 01:15:31;;;;;;;0.93;0.77;;;20.90;43.40;;;;;;4995987;28;20341;-66
2022/04/10 01:17:56;;;;;;;1.00;0.70;;;20.90;43.40;;;;;;4991939;28;20031;-62
2022/04/10 01:20:22;;;;;;;1.13;0.65;;;20.90;43.40;;;;;;4995633;28;20038;-63
2022/04/10 01:22:48;;;;;;;1.20;0.70;;;20.90;43.30;;;;;;4995373;28;20026;-63
2022/04/10 01:25:14;;;;;;;1.50;1.00;;;20.90;43.40;;;;;;4996008;28;20037;-64
2022/04/10 01:27:41;;;;;;;1.02;0.70;;;20.90;43.40;;;;;;4992540;28;20045;-64
2022/04/10 01:30:08;;;;;;;0.70;0.60;;;20.90;43.40;;;;;;4995457;28;20040;-62
2022/04/10 01:32:34;;;;;;;1.10;0.80;;;20.90;43.40;;;;;;4992229;28;20455;-64
2022/04/10 01:35:02;;;;;;;0.82;0.65;;;20.90;43.40;;;;;;4995303;28;20036;-61
2022/04/10 01:37:29;;;;;;;0.95;0.80;;;20.90;43.30;;;;;;4989317;28;20513;-62
2022/04/10 01:39:54;;;;;;;0.70;0.60;;;20.90;43.40;;;;;;4992130;28;20037;-66
2022/04/10 01:42:20;;;;;;;1.00;0.70;;;20.90;43.30;;;;;;4993197;28;20443;-61
2022/04/10 01:44:45;;;;;;;1.23;0.80;;;20.90;43.40;;;;;;4993555;28;20134;-65
2022/04/10 01:47:11;;;;;;;1.10;0.80;;;20.90;43.30;;;;;;5005511;28;20052;-64
2022/04/10 01:49:37;;;;;;;1.13;0.70;;;20.90;43.30;;;;;;4992930;28;20017;-66
2022/04/10 01:52:04;;;;;;;0.82;0.70;;;20.90;43.30;;;;;;4996375;28;20419;-63
2022/04/10 01:54:30;;;;;;;0.70;0.60;;;20.80;43.30;;;;;;4995233;28;20233;-65
2022/04/10 01:56:55;;;;;;;0.70;0.63;;;20.90;43.40;;;;;;4996900;28;20180;-66
2022/04/10 01:59:21;;;;;;;1.70;0.80;;;20.90;43.30;;;;;;4996977;28;20018;-63
2022/04/10 02:01:48;;;;;;;1.25;0.80;;;20.80;43.30;;;;;;4992292;28;20366;-64
2022/04/10 02:04:14;;;;;;;1.05;0.70;;;20.80;43.30;;;;;;4986779;28;20022;-64
2022/04/10 02:06:40;;;;;;;0.90;0.70;;;20.80;43.20;;;;;;4990992;28;20029;-64
2022/04/10 02:09:09;;;;;;;1.15;0.80;;;20.80;43.30;;;;;;5004529;28;20510;-62
2022/04/10 02:11:35;;;;;;;1.30;0.63;;;20.80;43.20;;;;;;4993021;28;20030;-62
2022/04/10 02:14:01;;;;;;;0.80;0.60;;;20.80;43.20;;;;;;4993765;28;20034;-64
2022/04/10 02:16:26;;;;;;;1.40;0.77;;;20.80;43.20;;;;;;4992781;28;20068;-62
2022/04/10 02:18:52;;;;;;;0.80;0.77;;;20.80;43.30;;;;;;4992238;28;20060;-66
2022/04/10 02:21:17;;;;;;;1.05;0.77;;;20.80;43.20;;;;;;5007125;28;20033;-65
2022/04/10 02:23:44;;;;;;;1.20;0.80;;;20.80;43.20;;;;;;5010454;28;20430;-64
2022/04/10 02:26:10;;;;;;;0.82;0.70;;;20.80;43.20;;;;;;5003158;28;20034;-64
2022/04/10 02:28:36;;;;;;;0.65;0.60;;;20.80;43.30;;;;;;4994226;28;20088;-62
2022/04/10 02:31:02;;;;;;;0.90;0.77;;;20.80;43.30;;;;;;4991117;28;20049;-63
2022/04/10 02:33:28;;;;;;;0.75;0.60;;;20.80;43.30;;;;;;4990722;28;20026;-64
2022/04/10 02:35:53;;;;;;;1.50;0.90;;;20.80;43.30;;;;;;4993124;28;20040;-64
2022/04/10 02:38:19;;;;;;;1.65;0.90;;;20.70;43.20;;;;;;4994259;28;20034;-66
2022/04/10 02:40:45;;;;;;;1.48;0.82;;;20.80;43.20;;;;;;4994796;28;20030;-68
2022/04/10 02:43:10;;;;;;;1.13;0.80;;;20.80;43.30;;;;;;4994142;28;20068;-67
2022/04/10 02:45:37;;;;;;;0.70;0.60;;;20.80;43.30;;;;;;4989584;28;20168;-63
2022/04/10 02:48:03;;;;;;;1.13;0.65;;;20.70;43.20;;;;;;4992027;28;20125;-65
2022/04/10 02:50:29;;;;;;;1.33;0.73;;;20.80;43.30;;;;;;4993082;28;20452;-63
2022/04/10 02:52:54;;;;;;;1.00;0.70;;;20.80;43.20;;;;;;4995238;28;20498;-64
2022/04/10 02:55:20;;;;;;;1.00;0.77;;;20.70;43.20;;;;;;4994877;28;20032;-65
2022/04/10 02:57:46;;;;;;;0.85;0.60;;;20.70;43.20;;;;;;4991343;28;20070;-64
2022/04/10 03:00:12;;;;;;;0.95;0.60;;;20.70;43.20;;;;;;4993762;28;20053;-64
2022/04/10 03:02:40;;;;;;;0.88;0.70;;;20.70;43.30;;;;;;4991351;28;20072;-65
2022/04/10 03:05:10;;;;;;;0.68;0.60;;;20.70;43.30;;;;;;4993393;28;20034;-64
2022/04/10 03:07:35;;;;;;;0.95;0.60;;;20.70;43.30;;;;;;4992773;28;20052;-64
2022/04/10 03:10:02;;;;;;;0.82;0.60;;;20.70;43.30;;;;;;4994266;28;20030;-63
2022/04/10 03:12:28;;;;;;;0.88;0.70;;;20.70;43.20;;;;;;4995189;28;20034;-63
2022/04/10 03:14:53;;;;;;;0.50;0.50;;;20.70;43.30;;;;;;4994687;28;20378;-64
2022/04/10 03:17:20;;;;;;;0.93;0.70;;;20.70;43.30;;;;;;4989210;28;20037;-67
2022/04/10 03:19:45;;;;;;;1.08;0.70;;;20.70;43.30;;;;;;4990562;28;20355;-65
2022/04/10 03:22:11;;;;;;;1.33;0.68;;;20.70;43.40;;;;;;4992629;28;20336;-64
2022/04/10 03:24:36;;;;;;;1.13;0.70;;;20.70;43.40;;;;;;4994061;28;20033;-63
2022/04/10 03:27:02;;;;;;;0.82;0.68;;;20.70;43.40;;;;;;4992838;28;20030;-62
2022/04/10 03:29:28;;;;;;;0.95;0.68;;;20.70;43.40;;;;;;4991578;28;20338;-65
2022/04/10 03:31:53;;;;;;;0.70;0.60;;;20.70;43.40;;;;;;4989379;28;20030;-64
2022/04/10 03:34:19;;;;;;;0.75;0.60;;;20.70;43.50;;;;;;4992676;28;20036;-63
2022/04/10 03:36:44;;;;;;;0.80;0.60;;;20.70;43.40;;;;;;4992804;28;20030;-66
2022/04/10 03:39:10;;;;;;;0.95;0.60;;;20.70;43.40;;;;;;4992793;28;21012;-66
2022/04/10 03:41:35;;;;;;;0.90;0.60;;;20.60;43.50;;;;;;4992582;28;20096;-66
2022/04/10 03:44:01;;;;;;;0.88;0.60;;;20.70;43.50;;;;;;4994818;28;20030;-66
2022/04/10 03:46:27;;;;;;;0.60;0.60;;;20.60;43.40;;;;;;4989503;28;20177;-64
2022/04/10 03:48:52;;;;;;;0.52;0.50;;;20.60;43.40;;;;;;4992032;28;20297;-61
2022/04/10 03:51:18;;;;;;;0.60;0.50;;;20.60;43.50;;;;;;4992208;28;20049;-64
2022/04/10 03:53:44;;;;;;;0.63;0.52;;;20.60;43.50;;;;;;4991528;28;20022;-66
2022/04/10 03:56:09;;;;;;;1.30;0.70;;;20.60;43.50;;;;;;4993335;28;20061;-63
2022/04/10 03:58:35;;;;;;;0.77;0.65;;;20.60;43.60;;;;;;4990832;28;20038;-62
2022/04/10 04:01:01;;;;;;;0.63;0.60;;;20.60;43.60;;;;;;4988523;28;20405;-63
2022/04/10 04:03:26;;;;;;;0.75;0.60;;;20.60;43.70;;;;;;4988532;28;20030;-66
2022/04/10 04:05:53;;;;;;;0.70;0.70;;;20.60;43.70;;;;;;4994528;28;20041;-63
2022/04/10 04:08:18;;;;;;;0.60;0.50;;;20.60;43.80;;;;;;4990653;28;20398;-66
2022/04/10 04:10:44;;;;;;;0.60;0.60;;;20.50;43.80;;;;;;4993033;28;20037;-66
2022/04/10 04:13:09;;;;;;;0.73;0.50;;;20.50;43.80;;;;;;4991595;28;20145;-61
2022/04/10 04:15:35;;;;;;;0.88;0.70;;;20.50;43.80;;;;;;4993318;28;20041;-66
2022/04/10 04:18:01;;;;;;;0.70;0.60;;;20.50;43.80;;;;;;4990645;28;20509;-62
2022/04/10 04:20:26;;;;;;;0.70;0.60;;;20.50;43.90;;;;;;4992458;28;20515;-64
2022/04/10 04:22:53;;;;;;;0.90;0.60;;;20.50;43.90;;;;;;4991333;28;20049;-64
2022/04/10 04:25:19;;;;;;;0.60;0.60;;;20.50;43.90;;;;;;4992671;28;20030;-67
2022/04/10 04:27:45;;;;;;;0.60;0.60;;;20.50;43.80;;;;;;4993171;28;20355;-67
2022/04/10 04:30:11;;;;;;;0.95;0.55;;;20.50;43.90;;;;;;4993411;28;20442;-67
2022/04/10 04:32:37;;;;;;;0.57;0.50;;;20.50;43.90;;;;;;4994110;28;20026;-67
2022/04/10 04:35:03;;;;;;;0.63;0.60;;;20.50;43.90;;;;;;4998227;28;20018;-64
2022/04/10 04:37:29;;;;;;;0.65;0.50;;;20.50;43.90;;;;;;4995187;28;20095;-66
2022/04/10 04:39:55;;;;;;;0.75;0.60;;;20.50;43.90;;;;;;4994660;28;20037;-68
2022/04/10 04:42:20;;;;;;;0.77;0.60;;;20.50;43.90;;;;;;4994195;28;20116;-62
2022/04/10 04:44:46;;;;;;;1.10;0.60;;;20.40;43.90;;;;;;4994344;28;20029;-63
2022/04/10 04:47:11;;;;;;;0.50;0.50;;;20.50;43.90;;;;;;4993730;28;20056;-62
2022/04/10 04:49:37;;;;;;;0.93;0.68;;;20.40;43.90;;;;;;4995132;28;20029;-62
2022/04/10 04:52:03;;;;;;;0.70;0.60;;;20.50;44.00;;;;;;5009110;28;20032;-62
2022/04/10 04:54:29;;;;;;;1.35;0.60;;;20.40;44.00;;;;;;4990880;28;20030;-64
2022/04/10 04:56:55;;;;;;;0.52;0.52;;;20.40;43.90;;;;;;4994544;28;20025;-63
2022/04/10 04:59:21;;;;;;;0.80;0.60;;;20.40;44.00;;;;;;4993549;28;20030;-63
2022/04/10 05:01:46;;;;;;;0.80;0.50;;;20.40;44.10;;;;;;4990557;28;20077;-64
2022/04/10 05:04:12;;;;;;;0.50;0.50;;;20.40;43.70;;;;;;4990540;28;20050;-64
2022/04/10 05:06:38;;;;;;;0.50;0.50;;;20.40;43.80;;;;;;4994455;28;20036;-63
2022/04/10 05:09:05;;;;;;;0.93;0.50;;;20.40;43.50;;;;;;4991859;28;20029;-63
2022/04/10 05:11:30;;;;;;;0.60;0.52;;;20.50;43.50;;;;;;4990361;28;20038;-63
2022/04/10 05:13:56;;;;;;;0.73;0.60;;;20.40;43.50;;;;;;4994243;28;20092;-63
2022/04/10 05:16:22;;;;;;;0.60;0.52;;;20.50;43.50;;;;;;4993309;28;20038;-64
2022/04/10 05:18:48;;;;;;;0.77;0.60;;;20.50;43.50;;;;;;4986521;28;20030;-65
2022/04/10 05:21:14;;;;;;;0.70;0.60;;;20.40;43.40;;;;;;4994118;28;20048;-65
2022/04/10 05:23:40;;;;;;;0.50;0.50;;;20.40;43.30;;;;;;4992374;28;20370;-64
2022/04/10 05:26:06;;;;;;;1.25;0.70;;;20.50;43.30;;;;;;4995129;28;20037;-62
2022/04/10 05:28:34;;;;;;;0.57;0.50;;;20.50;43.30;;;;;;4993741;28;20677;-63
2022/04/10 05:31:00;;;;;;;0.60;0.52;;;20.50;43.20;;;;;;4991579;28;20030;-63
2022/04/10 05:33:26;;;;;;;0.60;0.55;;;20.50;43.20;;;;;;4988428;28;20026;-62
2022/04/10 05:35:55;;;;;;;0.55;0.52;;;20.50;43.20;;;;;;4992027;28;20052;-62
2022/04/10 05:38:24;;;;;;;0.65;0.60;;;20.50;43.20;;;;;;4993421;28;20167;-62
2022/04/10 05:40:53;;;;;;;0.77;0.70;;;20.50;43.10;;;;;;4991657;28;20073;-62
2022/04/10 05:43:22;;;;;;;0.90;0.60;;;20.50;43.00;;;;;;4990371;28;20041;-61
2022/04/10 05:45:49;;;;;;;0.80;0.40;;;20.40;42.90;;;;;;4990554;28;20124;-64
2022/04/10 05:48:15;;;;;;;0.50;0.50;;;20.40;43.00;;;;;;4991473;28;20077;-63
2022/04/10 05:50:42;;;;;;;0.68;0.50;;;20.40;43.40;;;;;;4994794;28;20058;-62
2022/04/10 05:53:07;;;;;;;0.70;0.60;;;20.40;43.00;;;;;;4992435;28;20401;-62
2022/04/10 05:55:33;;;;;;;0.40;0.40;;;20.40;43.00;;;;;;4992425;28;20030;-62
2022/04/10 05:58:01;;;;;;;0.50;0.50;;;20.40;43.00;;;;;;4992082;28;20033;-63
2022/04/10 06:00:26;;;;;;;0.57;0.50;;;20.40;42.80;;;;;;4989137;28;20133;-62
2022/04/10 06:02:54;;;;;;;0.57;0.50;;;20.40;42.80;;;;;;4991641;28;20025;-62
2022/04/10 06:05:21;;;;;;;0.50;0.50;;;20.40;42.70;;;;;;4992031;28;20096;-62
2022/04/10 06:07:47;;;;;;;0.47;0.47;;;20.40;42.70;;;;;;4994713;28;20111;-64
2022/04/10 06:10:13;;;;;;;1.05;0.50;;;20.40;42.60;;;;;;4984621;28;20026;-63
2022/04/10 06:12:39;;;;;;;0.98;0.57;;;20.40;42.60;;;;;;4991329;28;20454;-62
2022/04/10 06:15:05;;;;;;;0.80;0.60;;;20.40;42.50;;;;;;4993860;28;20060;-63
2022/04/10 06:17:31;;;;;;;0.75;0.70;;;20.40;42.50;;;;;;4990572;28;20034;-62
2022/04/10 06:19:57;;;;;;;0.70;0.52;;;20.40;42.50;;;;;;4990634;28;20060;-63
2022/04/10 06:22:23;;;;;;;0.88;0.60;;;20.40;42.50;;;;;;4990834;28;20394;-64
2022/04/10 06:24:53;;;;;;;0.65;0.60;;;20.40;42.40;;;;;;4993153;28;20029;-62
2022/04/10 06:27:20;;;;;;;0.73;0.60;;;20.40;42.30;;;;;;4991332;28;20057;-64
2022/04/10 06:29:46;;;;;;;0.70;0.60;;;20.40;42.40;;;;;;4992455;28;20183;-61
2022/04/10 06:32:12;;;;;;;0.50;0.50;;;20.40;42.50;;;;;;4989078;28;20034;-62
2022/04/10 06:34:38;;;;;;;0.80;0.50;;;20.40;42.40;;;;;;4989396;28;20029;-63
2022/04/10 06:37:04;;;;;;;0.95;0.65;;;20.40;42.30;;;;;;4987820;28;20030;-65
2022/04/10 06:39:30;;;;;;;0.77;0.60;;;20.40;42.30;;;;;;4992030;28;20062;-63
2022/04/10 06:41:55;;;;;;;0.68;0.60;;;20.40;42.30;;;;;;4991927;28;20442;-63
2022/04/10 06:44:21;;;;;;;0.40;0.40;;;20.40;42.30;;;;;;4990463;28;20029;-62
2022/04/10 06:46:47;;;;;;;0.60;0.60;;;20.30;42.20;;;;;;4989797;28;20030;-63
2022/04/10 06:49:13;;;;;;;0.75;0.63;;;20.40;42.20;;;;;;4990163;28;20030;-64
2022/04/10 06:51:39;;;;;;;0.95;0.68;;;20.30;42.20;;;;;;4998850;28;20392;-63
2022/04/10 06:54:05;;;;;;;0.60;0.60;;;20.30;42.10;;;;;;4993373;28;20340;-63
2022/04/10 06:56:31;;;;;;;1.88;0.70;;;20.30;42.00;;;;;;4995853;28;20423;-63
2022/04/10 06:58:57;;;;;;;0.70;0.60;;;20.30;42.00;;;;;;4992428;28;20133;-65
2022/04/10 07:01:22;;;;;;;1.65;0.80;;;20.30;41.90;;;;;;4990266;28;20049;-63
2022/04/10 07:03:48;;;;;;;1.20;0.70;;;20.30;41.90;;;;;;4991101;28;20068;-61
2022/04/10 07:06:14;;;;;;;0.98;0.60;;;20.30;41.90;;;;;;4991740;28;20029;-64
2022/04/10 07:08:39;;;;;;;0.70;0.60;;;20.20;41.90;;;;;;4992427;28;20117;-64
2022/04/10 07:11:05;;;;;;;1.02;0.77;;;20.20;42.00;;;;;;4992121;28;20026;-63
2022/04/10 07:13:31;;;;;;;0.82;0.60;;;20.30;42.00;;;;;;4991648;28;20573;-62
2022/04/10 07:15:57;;;;;;;1.30;0.60;;;20.30;42.00;;;;;;4987113;28;20113;-64
2022/04/10 07:18:22;;;;;;;0.88;0.68;;;20.20;42.10;;;;;;4991012;28;20049;-62
2022/04/10 07:20:48;;;;;;;0.65;0.60;;;20.30;42.20;;;;;;4989932;28;20046;-64
2022/04/10 07:25:58;;;;;;;0.50;0.50;;;20.20;42.20;;;;;;4990084;28;20152;-62
2022/04/10 07:28:24;;;;;;;0.60;0.60;;;20.20;42.20;;;;;;4991956;28;20121;-62
2022/04/10 07:30:49;;;;;;;0.90;0.55;;;20.20;42.30;;;;;;4988725;28;20486;-63
2022/04/10 07:33:15;;;;;;;0.60;0.60;;;20.20;42.30;;;;;;4990264;28;20117;-62
2022/04/10 07:35:42;;;;;;;2.58;0.60;;;20.20;42.30;;;;;;4990104;28;20022;-63
2022/04/10 07:38:10;;;;;;;2.45;0.63;;;20.20;42.30;;;;;;4990385;28;20075;-64
2022/04/10 07:40:38;;;;;;;1.25;0.65;;;20.20;42.30;;;;;;4991302;28;20107;-63
2022/04/10 07:43:04;;;;;;;0.82;0.68;;;20.20;42.40;;;;;;4991585;28;20084;-62
2022/04/10 07:48:14;;;;;;;0.77;0.60;;;20.20;42.40;;;;;;4981773;28;20458;-63
2022/04/10 07:50:40;;;;;;;0.73;0.55;;;20.20;42.40;;;;;;4991927;28;20631;-63
2022/04/10 07:53:05;;;;;;;0.80;0.60;;;20.20;42.40;;;;;;4990119;28;20041;-63
2022/04/10 07:55:31;;;;;;;1.15;0.60;;;20.20;42.40;;;;;;4991883;28;20250;-61
2022/04/10 07:57:57;;;;;;;0.73;0.60;;;20.20;42.40;;;;;;4990507;28;20118;-62
2022/04/10 08:00:22;;;;;;;0.70;0.60;;;20.20;42.40;;;;;;4988135;28;20030;-64
2022/04/10 08:02:48;;;;;;;1.15;0.52;;;20.20;42.40;;;;;;4988604;28;20057;-62
2022/04/10 08:05:18;;;;;;;1.02;0.70;;;20.20;42.40;;;;;;4992499;28;20105;-63
2022/04/10 08:07:45;;;;;;;0.75;0.50;;;20.20;42.40;;;;;;5007412;28;20527;-63
2022/04/10 08:10:12;;;;;;;1.33;0.60;;;20.20;42.40;;;;;;4989291;28;20113;-62
2022/04/10 08:12:38;;;;;;;1.08;0.52;;;20.20;42.30;;;;;;4986789;28;20045;-61
2022/04/10 08:15:04;;;;;;;0.50;0.50;;;20.20;42.30;;;;;;4990723;28;20034;-63
2022/04/10 08:17:30;;;;;;;1.30;0.60;;;20.20;42.20;;;;;;4981017;28;20030;-62
2022/04/10 08:19:56;;;;;;;1.15;0.68;;;20.20;42.20;;;;;;4992054;28;20505;-63
2022/04/10 08:22:27;;;;;;;0.52;0.50;;;20.20;42.20;;;;;;4993018;28;20033;-62
2022/04/10 08:24:53;;;;;;;0.63;0.60;;;20.20;42.10;;;;;;4990649;28;21464;-62
2022/04/10 08:27:20;;;;;;;1.35;0.70;;;20.20;42.10;;;;;;4989872;28;20490;-62
2022/04/10 08:29:46;;;;;;;1.02;0.73;;;20.20;42.00;;;;;;4993408;28;20049;-62
2022/04/10 08:32:11;;;;;;;1.05;0.52;;;20.20;42.00;;;;;;4989891;28;20038;-62
2022/04/10 08:34:37;;;;;;;0.40;0.40;;;20.20;42.00;;;;;;4991976;28;20034;-64
2022/04/10 08:37:05;;;;;;;0.90;0.60;;;20.20;42.00;;;;;;4988270;28;20398;-62
2022/04/10 08:39:34;;;;;;;0.55;0.55;;;20.20;41.90;;;;;;4983968;28;20571;-65
2022/04/10 08:42:04;;;;;;;0.88;0.60;;;20.20;41.90;;;;;;4988678;28;20285;-62
2022/04/10 08:44:31;;;;;;;1.15;0.60;;;20.20;41.90;;;;;;4987138;28;20106;-64
2022/04/10 08:46:59;;;;;;;1.02;0.60;;;20.20;41.80;;;;;;4985481;28;20419;-63
2022/04/10 08:49:26;;;;;;;1.02;0.55;;;20.20;41.80;;;;;;4984296;28;20034;-63
2022/04/10 08:51:53;;;;;;;0.80;0.60;;;20.20;41.80;;;;;;4988980;28;20349;-64
2022/04/10 08:54:20;;;;;;;1.13;0.68;;;20.20;41.80;;;;;;4988872;28;20098;-62
2022/04/10 08:56:45;;;;;;;1.40;0.80;;;20.20;41.80;;;;;;4984330;28;20022;-62
2022/04/10 08:59:12;;;;;;;1.10;0.60;;;20.20;41.80;;;;;;4989676;28;20615;-62
2022/04/10 09:01:38;;;;;;;0.93;0.70;;;20.20;41.80;;;;;;4982894;28;20133;-64
2022/04/10 09:04:04;;;;;;;1.75;0.70;;;20.20;41.80;;;;;;4985161;28;20040;-62
2022/04/10 09:06:30;;;;;;;1.73;0.60;;;20.20;41.80;;;;;;5003172;28;20036;-63
2022/04/10 09:09:12;;;;;;;1.25;0.65;;;20.20;41.90;;;;;;4986749;28;20466;-62
2022/04/10 09:11:42;;;;;;;2.08;0.60;;;20.20;41.90;;;;;;4985776;28;20398;-63
2022/04/10 09:14:08;;;;;;;1.48;0.70;;;20.20;42.00;;;;;;4988757;28;20513;-64
2022/04/10 09:16:33;;;;;;;0.63;0.55;;;20.20;42.00;;;;;;4986089;28;20033;-64
2022/04/10 09:19:08;;;;;;;1.88;0.80;;;20.20;42.10;;;;;;4990403;28;20030;-64
2022/04/10 09:21:35;;;;;;;0.90;0.70;;;20.20;42.10;;;;;;4991537;28;20025;-62
2022/04/10 09:24:09;;;;;;;1.70;0.70;;;20.20;42.20;;;;;;4993536;28;20041;-64
2022/04/10 09:26:52;;;;;;;1.20;0.60;;;20.20;42.30;;;;;;4988014;28;20297;-65
2022/04/10 09:29:22;;;;;;;1.67;0.95;;;20.20;42.40;;;;;;4989285;28;20544;-64
2022/04/10 09:31:49;;;;;;;0.90;0.63;;;20.20;42.40;;;;;;4989037;28;20072;-62
2022/04/10 09:34:20;;;;;;;1.80;0.90;;;20.20;42.60;;;;;;4991877;28;20021;-65
2022/04/10 09:36:47;;;;;;;1.92;0.70;;;20.20;42.60;;;;;;4992428;28;20762;-63
2022/04/10 09:39:28;;;;;;;1.83;0.90;;;20.20;42.70;;;;;;4992186;28;20431;-65
2022/04/10 09:42:06;;;;;;;1.63;1.10;;;20.20;42.90;;;;;;4988859;28;20033;-62
2022/04/10 09:44:39;;;;;;;1.40;0.80;;;20.20;43.00;;;;;;4994099;28;20033;-62
2022/04/10 09:47:07;;;;;;;2.30;0.80;;;20.20;43.20;;;;;;4989214;28;20490;-62
2022/04/10 09:49:33;;;;;;;2.92;1.00;;;20.20;43.30;;;;;;4988460;28;20636;-61
2022/04/10 09:51:59;;;;;;;1.45;0.80;;;20.30;43.50;;;;;;4989105;28;20462;-61
2022/04/10 09:54:25;;;;;;;1.48;0.80;;;20.20;43.50;;;;;;4985799;28;20052;-59
2022/04/10 09:56:50;;;;;;;1.25;0.88;;;20.20;43.50;;;;;;4985701;28;20169;-61
2022/04/10 09:59:21;;;;;;;1.67;0.60;;;20.20;43.70;;;;;;4990697;28;20044;-58
2022/04/10 10:01:47;;;;;;;2.63;1.02;;;20.20;43.80;;;;;;4982187;28;20061;-61
2022/04/10 10:04:13;;;;;;;1.15;0.70;;;20.20;43.70;;;;;;4987906;28;20026;-60
2022/04/10 10:06:38;;;;;;;2.85;0.93;;;20.30;43.80;;;;;;4989021;28;20335;-61
2022/04/10 10:09:05;;;;;;;2.05;0.82;;;20.30;44.00;;;;;;4990619;28;20127;-60
2022/04/10 10:11:31;;;;;;;2.65;0.90;;;20.30;44.20;;;;;;4988036;28;20109;-62
2022/04/10 10:13:57;;;;;;;2.55;0.70;;;20.30;44.40;;;;;;4992970;28;20022;-61
2022/04/10 10:16:22;;;;;;;2.20;0.80;;;20.30;44.70;;;;;;4991729;28;20049;-59
2022/04/10 10:18:49;;;;;;;2.28;0.80;;;20.20;45.00;;;;;;4992018;28;20490;-61
2022/04/10 10:21:15;;;;;;;2.35;0.80;;;20.30;45.20;;;;;;4990455;28;20034;-61
2022/04/10 10:23:45;;;;;;;1.83;0.88;;;20.30;45.20;;;;;;4995719;28;20045;-60
2022/04/10 10:26:13;;;;;;;1.35;0.90;;;20.30;44.90;;;;;;4994109;28;20163;-59
2022/04/10 10:29:20;;;;;;;1.65;0.80;;;20.30;44.80;;;;;;4992547;28;20052;-61
2022/04/10 10:31:52;;;;;;;1.33;0.60;;;20.30;45.10;;;;;;4961780;28;20062;-61
2022/04/10 10:34:22;;;;;;;2.30;0.80;;;20.30;45.10;;;;;;4990979;28;20034;-61
2022/04/10 10:36:47;;;;;;;1.27;0.60;;;20.30;45.00;;;;;;4986554;28;20045;-60
2022/04/10 10:39:13;;;;;;;1.50;0.80;;;20.30;45.00;;;;;;4987578;28;20068;-61
2022/04/10 10:41:40;;;;;;;1.40;0.70;;;20.30;44.90;;;;;;4989501;28;20054;-59
2022/04/10 10:44:17;;;;;;;1.38;0.70;;;20.30;45.10;;;;;;4987374;28;20778;-59
2022/04/10 10:46:58;;;;;;;1.63;0.70;;;20.30;45.10;;;;;;4989174;28;20029;-60
2022/04/10 10:49:26;;;;;;;2.33;0.75;;;20.30;45.10;;;;;;4988262;28;21346;-61
2022/04/10 10:51:53;;;;;;;1.15;0.70;;;20.30;45.00;;;;;;4985327;28;20103;-61
2022/04/10 10:54:28;;;;;;;1.60;0.77;;;20.30;44.90;;;;;;4987318;28;20040;-60
2022/04/10 10:56:54;;;;;;;1.10;0.70;;;20.30;44.70;;;;;;4986655;28;20536;-60
2022/04/10 10:59:26;;;;;;;1.33;0.70;;;20.30;44.90;;;;;;4985351;28;20068;-60
2022/04/10 11:02:17;;;;;;;1.52;0.70;;;20.30;45.10;;;;;;4986523;28;20459;-60
2022/04/10 11:04:45;;;;;;;1.38;0.73;;;20.40;45.20;;;;;;4986827;28;20066;-61
2022/04/10 11:07:20;;;;;;;2.15;0.90;;;20.40;45.10;;;;;;4991717;28;20034;-60
2022/04/10 11:10:06;;;;;;;1.65;0.80;;;20.50;45.10;;;;;;4991326;28;20104;-61
2022/04/10 11:12:54;;;;;;;1.00;0.63;;;20.50;45.10;;;;;;4991157;28;20026;-59
2022/04/10 11:15:24;;;;;;;1.73;0.70;;;20.50;45.10;;;;;;4985664;28;20026;-60
2022/04/10 11:17:52;;;;;;;1.77;0.70;;;20.60;45.00;;;;;;4982288;28;20061;-59
2022/04/10 11:20:24;;;;;;;1.08;0.60;;;20.60;45.00;;;;;;4990162;28;20383;-61
2022/04/10 11:22:54;;;;;;;1.20;0.80;;;20.60;44.90;;;;;;4987221;28;20040;-61
2022/04/10 11:25:26;;;;;;;2.47;0.90;;;20.60;44.80;;;;;;4984356;28;20049;-61
2022/04/10 11:28:08;;;;;;;1.17;0.60;;;20.70;44.90;;;;;;4990408;28;20097;-61
2022/04/10 11:30:41;;;;;;;2.17;0.80;;;20.70;45.00;;;;;;4987227;28;20488;-60
2022/04/10 11:33:09;;;;;;;0.70;0.50;;;20.70;45.10;;;;;;4989961;28;20030;-59
2022/04/10 11:35:36;;;;;;;1.42;0.60;;;20.70;45.10;;;;;;4991810;28;20036;-60
2022/04/10 11:38:12;;;;;;;1.35;0.75;;;20.70;45.10;;;;;;4991995;28;20045;-60
2022/04/10 11:40:47;;;;;;;1.27;0.70;;;20.70;45.10;;;;;;4990649;28;20057;-61
2022/04/10 11:43:15;;;;;;;1.10;0.60;;;20.70;45.20;;;;;;5018832;28;20129;-59
2022/04/10 11:45:48;;;;;;;1.42;0.60;;;20.70;45.20;;;;;;4984129;28;20033;-59
2022/04/10 11:48:14;;;;;;;1.02;0.68;;;20.70;45.20;;;;;;4987154;28;20046;-59
2022/04/10 11:50:39;;;;;;;1.02;0.60;;;20.70;45.60;;;;;;4986655;28;20035;-59
2022/04/10 11:53:08;;;;;;;1.08;0.68;;;20.70;45.90;;;;;;4990410;28;20034;-59
2022/04/10 11:55:48;;;;;;;1.38;0.80;;;20.70;46.10;;;;;;4990215;28;20038;-61
2022/04/10 11:58:18;;;;;;;1.55;0.60;;;20.80;46.30;;;;;;4982491;28;20159;-59
2022/04/10 12:00:54;;;;;;;0.82;0.60;;;20.80;46.30;;;;;;4974781;28;20034;-57
2022/04/10 12:03:21;;;;;;;1.35;0.80;;;20.70;45.70;;;;;;4985803;28;20176;-59
2022/04/10 12:05:48;;;;;;;1.60;0.70;;;20.80;45.40;;;;;;4987248;28;20030;-61
2022/04/10 12:08:14;;;;;;;0.95;0.60;;;20.70;45.20;;;;;;4992701;28;20068;-59
2022/04/10 12:10:40;;;;;;;1.08;0.60;;;20.70;45.10;;;;;;4988944;28;20069;-61
2022/04/10 12:13:09;;;;;;;1.00;0.52;;;20.80;45.10;;;;;;4992255;28;20505;-61
2022/04/10 12:15:35;;;;;;;1.40;0.50;;;20.70;45.00;;;;;;4992172;28;20030;-60
2022/04/10 12:18:09;;;;;;;0.65;0.55;;;20.70;45.00;;;;;;4983354;28;20021;-60
2022/04/10 12:20:43;;;;;;;1.75;0.70;;;20.70;45.00;;;;;;4989869;28;20091;-59
2022/04/10 12:23:24;;;;;;;0.82;0.50;;;20.70;44.90;;;;;;4989615;28;20366;-59
2022/04/10 12:25:51;;;;;;;1.17;0.70;;;20.70;44.90;;;;;;4988608;28;20040;-61
2022/04/10 12:28:18;;;;;;;0.98;0.60;;;20.70;44.90;;;;;;4984329;28;20056;-60
2022/04/10 12:30:44;;;;;;;1.13;0.55;;;20.70;44.90;;;;;;4989038;28;20045;-59
2022/04/10 12:33:11;;;;;;;0.63;0.50;;;20.70;44.90;;;;;;4984280;28;20421;-58
2022/04/10 12:35:38;;;;;;;1.40;0.60;;;20.70;44.80;;;;;;4990988;28;20178;-61
2022/04/10 12:38:04;;;;;;;1.15;0.70;;;20.70;44.80;;;;;;4989489;28;20045;-60
2022/04/10 12:40:30;;;;;;;0.80;0.50;;;20.70;44.80;;;;;;4989088;28;20136;-58
2022/04/10 12:43:00;;;;;;;0.77;0.60;;;20.80;44.80;;;;;;4986264;28;20033;-62
2022/04/10 12:45:34;;;;;;;1.00;0.60;;;20.70;44.90;;;;;;4988909;28;20817;-59
2022/04/10 12:48:00;;;;;;;0.85;0.65;;;20.80;45.00;;;;;;4981267;28;20026;-60
2022/04/10 12:50:28;;;;;;;1.85;0.50;;;20.70;45.20;;;;;;5003163;28;20148;-58
2022/04/10 12:52:55;;;;;;;1.05;0.60;;;20.70;45.20;;;;;;4990452;28;20032;-59
2022/04/10 12:55:36;;;;;;;1.55;0.60;;;20.70;45.40;;;;;;4992176;28;20487;-66
2022/04/10 12:58:04;;;;;;;1.05;0.60;;;20.80;45.60;;;;;;4987260;28;20387;-61